Time;durP1;ratioP1;P1;durP2;ratioP2;P2;SDS_P1;SDS_P2;PMS_P1;PMS_P2;Temp;Humidity;BMP_temperature;BMP_pressure;BME280_temperature;BME280_humidity;BME280_pressure;Samples;Min_cycle;Max_cycle;Signal;HPM_P1;HPM_P2
2021/05/05 00:01:11;;;;;;;472.90;420.90;;;;;;;13.81;43.23;97520.72;5083149;28;20063;-64
2021/05/05 00:03:36;;;;;;;480.23;427.13;;;;;;;13.97;42.12;97519.06;5080951;28;20020;-62
2021/05/05 00:06:03;;;;;;;484.43;429.83;;;;;;;13.95;42.10;97518.31;5081267;28;20063;-63
2021/05/05 00:08:28;;;;;;;485.30;430.33;;;;;;;14.01;42.02;97517.16;5083735;28;20028;-62
2021/05/05 00:10:54;;;;;;;483.67;425.57;;;;;;;14.04;41.64;97515.28;5083715;28;20037;-63
2021/05/05 00:13:19;;;;;;;487.77;432.67;;;;;;;14.08;41.80;97511.63;5082195;28;20059;-62
2021/05/05 00:15:46;;;;;;;492.70;425.53;;;;;;;14.11;41.85;97510.63;5083948;28;20613;-62
2021/05/05 00:18:12;;;;;;;489.87;427.40;;;;;;;14.07;41.91;97511.69;5080783;28;20075;-63
2021/05/05 00:20:38;;;;;;;488.80;431.87;;;;;;;14.11;41.46;97508.06;5081238;28;20024;-63
2021/05/05 00:23:04;;;;;;;486.53;425.87;;;;;;;14.08;41.48;97506.47;5079054;28;20028;-63
2021/05/05 00:25:29;;;;;;;488.97;428.33;;;;;;;14.01;41.48;97502.53;5081948;28;20031;-62
2021/05/05 00:27:56;;;;;;;485.23;422.93;;;;;;;13.85;42.25;97504.22;5081750;28;20036;-63
2021/05/05 00:30:23;;;;;;;486.73;427.93;;;;;;;13.71;43.82;97504.88;5078405;28;20071;-63
2021/05/05 00:32:50;;;;;;;488.07;431.53;;;;;;;13.55;45.06;97500.56;5081024;28;20028;-62
2021/05/05 00:35:15;;;;;;;488.13;424.70;;;;;;;13.35;46.62;97493.00;5080279;28;20032;-62
2021/05/05 00:37:41;;;;;;;485.73;427.00;;;;;;;13.11;47.69;97492.44;5081872;28;20020;-64
2021/05/05 00:40:08;;;;;;;489.13;432.60;;;;;;;12.96;48.53;97488.78;5084467;28;20033;-64
2021/05/05 00:42:34;;;;;;;487.73;427.13;;;;;;;12.83;49.22;97482.53;5088615;28;20111;-64
2021/05/05 00:45:04;;;;;;;490.10;417.63;;;;;;;12.73;49.66;97478.75;5082818;28;20032;-64
2021/05/05 00:47:30;;;;;;;486.03;410.23;;;;;;;12.59;49.08;97478.53;5083026;28;20037;-64
2021/05/05 00:49:57;;;;;;;487.57;421.47;;;;;;;12.54;49.36;97483.03;5083744;28;20139;-64
2021/05/05 00:52:23;;;;;;;487.23;399.20;;;;;;;12.41;50.69;97490.47;5081160;28;20078;-64
2021/05/05 00:54:49;;;;;;;479.93;391.70;;;;;;;12.34;49.82;97486.53;5082799;28;20032;-63
2021/05/05 00:57:14;;;;;;;479.10;395.07;;;;;;;12.20;50.73;97487.13;5081608;28;20054;-64
2021/05/05 00:59:41;;;;;;;479.53;385.33;;;;;;;12.21;50.91;97490.53;5086941;28;20096;-63
2021/05/05 01:02:06;;;;;;;475.27;385.43;;;;;;;12.18;50.24;97485.50;5083570;28;20509;-64
2021/05/05 01:04:32;;;;;;;480.37;382.77;;;;;;;12.11;50.47;97482.38;5089251;28;20036;-64
2021/05/05 01:06:57;;;;;;;474.17;378.80;;;;;;;12.04;50.96;97495.56;5084935;28;20052;-63
2021/05/05 01:09:24;;;;;;;470.27;379.37;;;;;;;11.95;51.06;97491.66;5085267;28;20035;-64
2021/05/05 01:11:50;;;;;;;466.17;371.17;;;;;;;11.84;51.57;97492.09;5085720;28;20043;-63
2021/05/05 01:14:16;;;;;;;473.87;382.77;;;;;;;11.94;51.12;97492.53;5083302;28;20133;-63
2021/05/05 01:16:42;;;;;;;469.00;368.80;;;;;;;11.89;51.96;97490.16;5084457;28;20020;-63
2021/05/05 01:19:08;;;;;;;472.23;375.33;;;;;;;11.90;51.70;97489.28;5082493;28;20028;-62
2021/05/05 01:21:33;;;;;;;463.47;367.57;;;;;;;11.85;51.46;97490.34;5085559;28;20028;-62
2021/05/05 01:23:59;;;;;;;459.50;360.17;;;;;;;11.88;51.16;97496.19;5083018;28;20032;-62
2021/05/05 01:26:27;;;;;;;454.63;353.90;;;;;;;11.87;51.56;97491.16;5083481;28;20028;-63
2021/05/05 01:28:57;;;;;;;462.30;354.30;;;;;;;11.76;52.09;97483.88;5083707;28;20059;-63
2021/05/05 01:31:23;;;;;;;461.10;349.43;;;;;;;11.67;53.03;97486.78;5084142;28;20028;-62
2021/05/05 01:33:49;;;;;;;462.40;351.43;;;;;;;11.57;53.54;97490.66;5094188;28;20111;-63
2021/05/05 01:36:17;;;;;;;465.37;352.60;;;;;;;11.57;53.27;97479.56;5081839;28;20123;-62
2021/05/05 01:38:42;;;;;;;462.03;333.97;;;;;;;11.51;54.19;97490.91;5083269;28;20038;-62
2021/05/05 01:41:08;;;;;;;460.97;342.33;;;;;;;11.45;54.21;97496.31;5094462;28;20028;-62
2021/05/05 01:43:33;;;;;;;476.03;363.00;;;;;;;11.52;53.16;97490.00;5081739;28;20086;-62
2021/05/05 01:45:59;;;;;;;462.90;348.93;;;;;;;11.58;53.12;97486.38;5086524;28;20032;-62
2021/05/05 01:48:25;;;;;;;470.63;345.00;;;;;;;11.73;51.60;97490.88;5083312;28;20392;-63
2021/05/05 01:50:50;;;;;;;466.23;339.33;;;;;;;11.80;51.51;97489.72;5083881;28;20035;-64
2021/05/05 01:53:17;;;;;;;468.60;340.60;;;;;;;11.85;51.11;97487.78;5083504;28;20020;-63
2021/05/05 01:55:43;;;;;;;457.57;323.80;;;;;;;11.84;51.62;97484.38;5083363;28;20025;-63
2021/05/05 01:58:09;;;;;;;460.17;331.30;;;;;;;11.82;50.67;97482.78;5085025;28;20342;-62
2021/05/05 02:00:35;;;;;;;468.70;343.60;;;;;;;11.77;50.87;97489.84;5084968;28;20033;-62
2021/05/05 02:03:00;;;;;;;463.80;335.90;;;;;;;11.66;51.40;97482.59;5083009;28;20138;-63
2021/05/05 02:05:26;;;;;;;462.40;326.93;;;;;;;11.55;51.29;97479.59;5081906;28;20472;-62
2021/05/05 02:07:51;;;;;;;464.33;337.53;;;;;;;11.47;52.04;97484.22;5081078;28;20278;-62
2021/05/05 02:10:19;;;;;;;462.60;336.73;;;;;;;11.42;52.80;97488.69;5082286;28;20029;-62
2021/05/05 02:12:45;;;;;;;450.23;327.97;;;;;;;11.33;54.13;97486.53;5084525;28;20035;-63
2021/05/05 02:15:13;;;;;;;453.10;341.03;;;;;;;11.25;54.26;97473.16;5086290;28;20042;-64
2021/05/05 02:17:38;;;;;;;462.10;342.87;;;;;;;11.22;54.25;97476.69;5086686;28;20321;-64
2021/05/05 02:20:09;;;;;;;457.07;337.20;;;;;;;11.20;54.42;97468.19;5085339;28;20034;-64
2021/05/05 02:22:36;;;;;;;463.87;326.33;;;;;;;11.15;54.26;97471.88;5081715;28;20024;-63
2021/05/05 02:25:02;;;;;;;452.87;327.27;;;;;;;11.15;54.10;97469.31;5084503;28;20369;-63
2021/05/05 02:27:29;;;;;;;461.20;338.17;;;;;;;11.16;55.41;97465.84;5085185;28;20032;-63
2021/05/05 02:29:55;;;;;;;459.80;328.90;;;;;;;11.15;55.33;97469.31;5084347;28;20028;-63
2021/05/05 02:32:23;;;;;;;465.27;326.47;;;;;;;11.16;55.22;97473.53;5082470;28;20031;-63
2021/05/05 02:34:50;;;;;;;469.90;338.10;;;;;;;11.17;55.46;97468.34;5083938;28;20029;-63
2021/05/05 02:37:16;;;;;;;464.57;325.80;;;;;;;11.12;54.26;97466.88;5081624;28;20121;-63
2021/05/05 02:39:44;;;;;;;464.57;335.03;;;;;;;11.16;54.15;97468.41;5082516;28;20377;-63
2021/05/05 02:42:13;;;;;;;469.37;332.60;;;;;;;11.22;53.79;97468.16;5081519;28;20082;-63
2021/05/05 02:44:38;;;;;;;466.07;334.67;;;;;;;11.25;54.23;97463.72;5084831;28;20092;-63
2021/05/05 02:47:05;;;;;;;456.10;324.53;;;;;;;11.27;53.76;97461.13;5083997;28;20370;-64
2021/05/05 02:49:31;;;;;;;454.40;327.47;;;;;;;11.24;53.51;97462.09;5085263;28;20085;-64
2021/05/05 02:51:57;;;;;;;454.90;326.37;;;;;;;11.26;53.32;97462.00;5082587;28;20084;-64
2021/05/05 02:54:23;;;;;;;453.23;329.23;;;;;;;11.26;53.11;97467.13;5082804;28;20128;-64
2021/05/05 02:56:48;;;;;;;462.87;336.63;;;;;;;11.23;55.23;97462.97;5080723;28;20370;-64
2021/05/05 02:59:13;;;;;;;457.47;326.77;;;;;;;11.22;55.97;97463.84;5082824;28;20032;-63
2021/05/05 03:01:39;;;;;;;467.13;337.77;;;;;;;11.18;54.94;97467.44;5081593;28;20080;-63
2021/05/05 03:04:04;;;;;;;462.40;330.07;;;;;;;11.21;54.83;97466.47;5081480;28;20072;-63
2021/05/05 03:06:30;;;;;;;460.07;334.33;;;;;;;11.28;53.58;97460.22;5081154;28;20052;-64
2021/05/05 03:08:57;;;;;;;454.73;339.73;;;;;;;11.47;52.78;97466.25;5081640;28;20028;-63
2021/05/05 03:11:22;;;;;;;457.93;330.90;;;;;;;11.52;53.25;97466.06;5084219;28;20508;-63
2021/05/05 03:13:48;;;;;;;459.57;338.30;;;;;;;11.51;53.21;97449.84;5082916;28;20052;-63
2021/05/05 03:16:13;;;;;;;458.63;329.67;;;;;;;11.60;52.41;97454.59;5082795;28;20039;-63
2021/05/05 03:18:38;;;;;;;456.47;332.43;;;;;;;11.58;52.79;97456.41;5083444;28;20020;-64
2021/05/05 03:21:04;;;;;;;447.00;345.40;;;;;;;11.69;51.63;97455.94;5080602;28;20029;-63
2021/05/05 03:23:30;;;;;;;443.07;327.87;;;;;;;11.63;52.54;97459.59;5081359;28;20032;-64
2021/05/05 03:25:55;;;;;;;452.17;331.17;;;;;;;11.61;52.33;97456.25;5084638;28;20105;-63
2021/05/05 03:28:21;;;;;;;458.90;345.60;;;;;;;11.58;52.56;97455.56;5081865;28;20024;-63
2021/05/05 03:30:46;;;;;;;458.77;345.90;;;;;;;11.57;52.76;97449.59;5083353;28;20443;-63
2021/05/05 03:33:12;;;;;;;455.67;344.50;;;;;;;11.55;53.18;97445.41;5082260;28;20420;-64
2021/05/05 03:35:37;;;;;;;454.87;347.47;;;;;;;11.56;53.35;97447.91;5079283;28;20103;-63
2021/05/05 03:38:03;;;;;;;448.73;348.80;;;;;;;11.53;52.72;97450.63;5083840;28;20024;-63
2021/05/05 03:40:29;;;;;;;459.37;343.90;;;;;;;11.52;53.31;97455.81;5082721;28;20370;-63
2021/05/05 03:42:55;;;;;;;457.73;340.17;;;;;;;11.52;53.71;97451.50;5079990;28;20297;-63
2021/05/05 03:45:21;;;;;;;466.70;355.20;;;;;;;11.52;53.87;97453.25;5084843;28;20141;-64
2021/05/05 03:47:46;;;;;;;464.47;341.63;;;;;;;11.51;53.88;97449.84;5083236;28;20384;-63
2021/05/05 03:50:12;;;;;;;460.77;336.87;;;;;;;11.56;54.09;97452.22;5082046;28;20036;-63
2021/05/05 03:52:37;;;;;;;459.73;348.30;;;;;;;11.56;54.76;97447.91;5083214;28;20028;-63
2021/05/05 03:55:05;;;;;;;457.90;337.50;;;;;;;11.59;55.38;97447.78;5081229;28;20104;-63
2021/05/05 03:57:30;;;;;;;454.53;330.27;;;;;;;11.59;54.44;97458.03;5079373;28;20017;-64
2021/05/05 03:59:56;;;;;;;455.30;343.83;;;;;;;11.61;54.84;97452.84;5082234;28;20081;-64
2021/05/05 04:02:21;;;;;;;456.90;346.70;;;;;;;11.64;55.64;97451.00;5080738;28;20038;-63
2021/05/05 04:04:46;;;;;;;453.50;341.93;;;;;;;11.66;55.95;97445.81;5084318;28;20158;-63
2021/05/05 04:07:12;;;;;;;447.60;332.93;;;;;;;11.72;55.38;97456.66;5081791;28;20035;-64
2021/05/05 04:09:37;;;;;;;457.23;345.87;;;;;;;11.79;55.26;97457.25;5081612;28;20025;-64
2021/05/05 04:12:04;;;;;;;452.10;351.10;;;;;;;11.82;55.11;97449.41;5081454;28;20074;-63
2021/05/05 04:14:30;;;;;;;449.23;347.70;;;;;;;11.85;54.85;97444.97;5083215;28;20050;-63
2021/05/05 04:16:55;;;;;;;439.73;349.30;;;;;;;11.81;55.79;97448.56;5080266;28;20025;-64
2021/05/05 04:19:21;;;;;;;439.27;356.97;;;;;;;11.84;55.32;97443.31;5084009;28;20035;-63
2021/05/05 04:21:47;;;;;;;440.40;357.50;;;;;;;11.89;55.43;97446.50;5081678;28;20032;-64
2021/05/05 04:24:12;;;;;;;437.50;354.53;;;;;;;11.92;55.51;97447.28;5081228;28;20045;-63
2021/05/05 04:26:38;;;;;;;444.57;358.30;;;;;;;11.89;55.74;97445.66;5080171;28;20381;-64
2021/05/05 04:29:03;;;;;;;427.63;349.73;;;;;;;11.86;56.44;97444.09;5080816;28;20039;-63
2021/05/05 04:31:30;;;;;;;419.67;364.53;;;;;;;11.93;55.97;97441.22;5083234;28;20024;-64
2021/05/05 04:33:55;;;;;;;421.70;356.43;;;;;;;11.96;55.69;97439.38;5097649;28;20037;-64
2021/05/05 04:36:21;;;;;;;416.53;365.00;;;;;;;12.05;55.60;97433.00;5080018;28;20028;-64
2021/05/05 04:38:46;;;;;;;412.87;348.30;;;;;;;12.20;55.84;97440.03;5084410;28;20360;-64
2021/05/05 04:41:12;;;;;;;408.23;363.23;;;;;;;12.33;55.55;97436.00;5077520;28;20480;-63
2021/05/05 04:43:38;;;;;;;431.00;383.43;;;;;;;12.43;54.79;97437.28;5081345;28;20039;-64
2021/05/05 04:46:03;;;;;;;427.00;382.17;;;;;;;12.52;55.33;97430.88;5081117;28;20594;-64
2021/05/05 04:48:29;;;;;;;424.20;379.53;;;;;;;12.57;55.25;97419.47;5081691;28;20111;-64
2021/05/05 04:50:55;;;;;;;425.27;382.50;;;;;;;12.71;55.38;97421.41;5081389;28;20051;-64
2021/05/05 04:53:22;;;;;;;417.80;376.23;;;;;;;12.75;54.91;97407.50;5081792;28;20073;-63
2021/05/05 04:55:48;;;;;;;419.40;377.53;;;;;;;12.83;55.39;97416.50;5082245;28;20105;-64
2021/05/05 04:58:13;;;;;;;424.17;382.13;;;;;;;12.89;54.99;97411.97;5079102;28;20316;-63
2021/05/05 05:00:38;;;;;;;434.93;391.63;;;;;;;12.97;55.06;97407.31;5082937;28;20428;-64
2021/05/05 05:03:04;;;;;;;440.50;397.80;;;;;;;13.18;54.47;97417.44;5079912;28;20028;-64
2021/05/05 05:05:29;;;;;;;456.33;412.43;;;;;;;13.40;53.65;97417.22;5089489;28;20049;-64
2021/05/05 05:07:55;;;;;;;438.90;397.83;;;;;;;13.63;52.92;97409.16;5082213;28;20032;-64
2021/05/05 05:10:21;;;;;;;447.67;406.27;;;;;;;13.66;52.38;97403.81;5083432;28;20043;-63
2021/05/05 05:12:46;;;;;;;470.13;427.40;;;;;;;13.69;50.92;97403.69;5081036;28;20028;-62
2021/05/05 05:15:12;;;;;;;474.23;430.67;;;;;;;13.83;50.81;97404.75;5083713;28;20032;-63
2021/05/05 05:17:38;;;;;;;479.77;435.97;;;;;;;13.86;50.70;97404.56;5082555;28;20447;-63
2021/05/05 05:20:06;;;;;;;473.40;428.97;;;;;;;13.99;51.65;97403.84;5077533;28;20040;-62
2021/05/05 05:22:34;;;;;;;482.90;438.60;;;;;;;14.05;51.94;97400.94;5081281;28;20040;-62
2021/05/05 05:25:05;;;;;;;474.97;432.13;;;;;;;14.15;50.56;97396.97;5081481;28;20043;-63
2021/05/05 05:27:31;;;;;;;476.63;434.30;;;;;;;14.26;50.47;97398.97;5095660;28;20127;-63
2021/05/05 05:29:57;;;;;;;502.65;459.35;;;;;;;14.33;49.91;97392.59;5079055;28;20107;-62
2021/05/05 05:32:22;;;;;;;512.23;466.97;;;;;;;14.47;48.95;97395.28;5082089;28;20047;-63
2021/05/05 05:34:47;;;;;;;511.15;466.52;;;;;;;14.59;48.50;97384.31;5085519;28;20055;-64
2021/05/05 05:37:13;;;;;;;519.80;474.40;;;;;;;14.81;47.69;97391.66;5080349;28;20326;-64
2021/05/05 05:39:38;;;;;;;521.28;477.48;;;;;;;14.88;46.92;97387.00;5081346;28;20325;-64
2021/05/05 05:42:04;;;;;;;533.25;489.02;;;;;;;15.01;46.86;97391.41;5082080;28;20031;-63
2021/05/05 05:44:30;;;;;;;533.10;487.15;;;;;;;15.15;46.45;97394.97;5085371;28;20028;-64
2021/05/05 05:46:55;;;;;;;575.15;525.05;;;;;;;15.22;46.43;97384.19;5084566;28;20060;-64
2021/05/05 05:49:21;;;;;;;539.87;490.40;;;;;;;15.36;45.19;97386.78;5084906;28;20392;-64
2021/05/05 05:51:46;;;;;;;564.87;512.30;;;;;;;15.49;44.97;97385.16;5084165;28;20151;-62
2021/05/05 05:54:12;;;;;;;559.93;505.83;;;;;;;15.48;45.21;97380.94;5083755;28;20415;-62
2021/05/05 05:56:37;;;;;;;569.60;514.53;;;;;;;15.64;45.05;97385.22;5085669;28;20115;-65
2021/05/05 05:59:03;;;;;;;568.23;512.00;;;;;;;15.84;44.32;97382.25;5085442;28;20035;-64
2021/05/05 06:01:28;;;;;;;562.90;507.07;;;;;;;16.07;44.46;97379.13;5084600;28;20102;-61
2021/05/05 06:03:54;;;;;;;572.87;517.00;;;;;;;16.19;43.61;97378.38;5087347;28;20065;-65
2021/05/05 06:06:19;;;;;;;615.13;557.47;;;;;;;16.21;43.38;97379.09;5083889;28;20074;-62
2021/05/05 06:08:45;;;;;;;605.80;548.80;;;;;;;16.38;42.81;97378.88;5093709;28;20036;-62
2021/05/05 06:11:10;;;;;;;590.75;534.58;;;;;;;16.65;42.21;97372.94;5093730;28;20035;-62
2021/05/05 06:13:36;;;;;;;617.80;561.40;;;;;;;16.87;42.42;97373.25;5083148;28;20143;-65
2021/05/05 06:16:01;;;;;;;616.90;560.75;;;;;;;17.13;42.56;97372.38;5082654;28;20043;-68
2021/05/05 06:18:27;;;;;;;634.53;578.05;;;;;;;17.32;43.11;97374.59;5085810;28;20547;-65
2021/05/05 06:20:52;;;;;;;634.25;578.85;;;;;;;17.29;41.97;97374.78;5085174;28;20046;-65
2021/05/05 06:23:17;;;;;;;636.83;580.72;;;;;;;17.36;41.87;97371.69;5086906;28;20132;-64
2021/05/05 06:25:43;;;;;;;650.63;594.22;;;;;;;17.35;42.42;97377.78;5084928;28;20020;-65
2021/05/05 06:28:09;;;;;;;652.42;595.20;;;;;;;17.42;41.52;97372.22;5084131;28;20040;-65
2021/05/05 06:30:35;;;;;;;646.20;590.38;;;;;;;17.42;41.50;97364.44;5086176;28;20058;-64
2021/05/05 06:33:00;;;;;;;645.30;591.60;;;;;;;17.35;41.37;97370.03;5088693;28;20167;-64
2021/05/05 06:35:26;;;;;;;648.17;594.67;;;;;;;17.52;41.08;97360.31;5082852;28;20055;-64
2021/05/05 06:37:51;;;;;;;667.58;611.63;;;;;;;17.53;41.00;97365.38;5080321;28;20135;-63
2021/05/05 06:40:17;;;;;;;669.58;615.00;;;;;;;17.66;40.65;97355.88;5086024;28;20084;-62
2021/05/05 06:42:42;;;;;;;671.17;614.90;;;;;;;17.76;41.10;97353.50;5089110;28;20111;-63
2021/05/05 06:45:09;;;;;;;668.95;611.35;;;;;;;17.98;41.50;97342.50;5085479;28;20028;-63
2021/05/05 06:47:35;;;;;;;680.53;623.00;;;;;;;18.07;40.39;97347.88;5092208;28;20315;-63
2021/05/05 06:50:03;;;;;;;692.33;634.05;;;;;;;18.22;39.88;97343.38;5080761;28;20332;-63
2021/05/05 06:52:28;;;;;;;688.13;630.45;;;;;;;18.33;39.75;97337.44;5089690;28;20403;-63
2021/05/05 06:54:54;;;;;;;687.70;630.15;;;;;;;18.48;39.25;97342.34;5084297;28;20284;-63
2021/05/05 06:57:19;;;;;;;686.15;629.40;;;;;;;18.68;37.99;97333.16;5081452;28;20577;-63
2021/05/05 06:59:44;;;;;;;691.75;635.53;;;;;;;18.68;38.40;97333.16;5079210;28;20043;-63
2021/05/05 07:02:10;;;;;;;700.38;644.63;;;;;;;18.66;38.12;97337.66;5089768;28;20027;-63
2021/05/05 07:04:35;;;;;;;706.63;650.15;;;;;;;18.66;38.56;97340.25;5080353;28;20024;-62
2021/05/05 07:07:01;;;;;;;702.95;650.33;;;;;;;18.76;38.90;97330.84;5079410;28;20025;-61
2021/05/05 07:09:26;;;;;;;705.17;649.17;;;;;;;18.90;38.44;97322.03;5080316;28;20067;-61
2021/05/05 07:11:51;;;;;;;715.22;660.97;;;;;;;19.09;38.44;97331.00;5082351;28;20032;-62
2021/05/05 07:14:17;;;;;;;717.60;663.35;;;;;;;19.17;38.25;97320.84;5082370;28;20098;-62
2021/05/05 07:16:42;;;;;;;722.92;667.28;;;;;;;19.30;36.93;97314.72;5082665;28;20361;-62
2021/05/05 07:19:08;;;;;;;722.38;667.03;;;;;;;19.33;37.72;97314.50;5081970;28;20035;-62
2021/05/05 07:21:33;;;;;;;734.65;678.80;;;;;;;19.53;37.63;97311.25;5089097;28;20031;-62
2021/05/05 07:23:59;;;;;;;733.33;677.10;;;;;;;19.68;36.72;97311.84;5079380;28;20073;-62
2021/05/05 07:26:25;;;;;;;742.45;686.53;;;;;;;19.44;37.96;97312.75;5081211;28;20116;-62
2021/05/05 07:28:51;;;;;;;740.63;684.88;;;;;;;19.63;35.80;97307.00;5084340;28;20081;-62
2021/05/05 07:31:17;;;;;;;746.38;689.65;;;;;;;19.82;35.05;97304.63;5080215;28;20107;-62
2021/05/05 07:33:43;;;;;;;767.50;710.00;;;;;;;19.98;35.17;97297.31;5089347;28;20111;-62
2021/05/05 07:36:14;;;;;;;765.22;709.45;;;;;;;20.10;35.48;97300.72;5079479;28;20354;-62
2021/05/05 07:46:55;;;;;;;779.33;724.97;;;;;;;20.04;36.85;97280.38;5082506;28;20668;-62
2021/05/05 07:49:22;;;;;;;774.58;720.55;;;;;;;20.16;36.89;97283.78;5080833;28;20032;-62
2021/05/05 07:51:48;;;;;;;790.58;736.60;;;;;;;20.02;37.13;97277.09;5099022;28;20032;-62
2021/05/05 07:54:15;;;;;;;786.83;734.38;;;;;;;20.19;35.68;97275.75;5081920;28;20039;-62
2021/05/05 07:56:41;;;;;;;789.08;737.47;;;;;;;20.29;35.60;97269.72;5085910;28;20052;-61
2021/05/05 07:59:07;;;;;;;785.88;736.38;;;;;;;20.36;34.07;97263.09;5082691;28;20032;-62
2021/05/05 08:01:34;;;;;;;777.13;726.88;;;;;;;20.37;34.60;97266.47;5082836;28;20372;-62
2021/05/05 08:04:00;;;;;;;782.05;731.65;;;;;;;20.16;34.09;97260.34;5080041;28;20024;-61
2021/05/05 08:06:26;;;;;;;786.70;736.50;;;;;;;20.30;35.06;97262.72;5080304;28;20049;-61
2021/05/05 08:08:52;;;;;;;796.28;746.53;;;;;;;20.48;35.75;97253.44;5085465;28;20029;-63
2021/05/05 08:11:18;;;;;;;798.17;749.33;;;;;;;20.45;34.89;97253.72;5082692;28;20020;-61
2021/05/05 08:13:44;;;;;;;793.30;742.17;;;;;;;20.57;34.95;97252.72;5081966;28;20396;-62
2021/05/05 08:16:10;;;;;;;794.92;741.83;;;;;;;20.74;34.29;97259.97;5092882;28;20033;-64
2021/05/05 08:18:36;;;;;;;820.83;766.50;;;;;;;20.61;33.62;97261.09;5081584;28;20029;-62
2021/05/05 08:21:05;;;;;;;824.88;768.60;;;;;;;20.75;34.51;97250.38;5082174;28;20636;-62
2021/05/05 08:23:31;;;;;;;816.20;760.70;;;;;;;20.42;35.40;97256.53;5083545;28;20156;-62
2021/05/05 08:25:56;;;;;;;805.67;751.78;;;;;;;20.28;34.93;97244.63;5080796;28;20111;-62
2021/05/05 08:28:22;;;;;;;793.40;737.70;;;;;;;20.36;34.19;97247.47;5080172;28;20273;-61
2021/05/05 08:30:48;;;;;;;796.53;740.00;;;;;;;20.49;34.73;97242.09;5079405;28;20397;-62
2021/05/05 08:33:14;;;;;;;799.28;739.92;;;;;;;20.54;34.75;97237.31;5080253;28;20043;-62
2021/05/05 08:35:40;;;;;;;794.67;735.20;;;;;;;20.45;34.04;97232.88;5082200;28;20048;-62
2021/05/05 08:38:06;;;;;;;795.33;736.03;;;;;;;20.74;33.56;97222.69;5081178;28;20086;-62
2021/05/05 08:40:32;;;;;;;800.95;741.95;;;;;;;21.02;34.04;97226.41;5079654;28;20024;-62
2021/05/05 08:42:58;;;;;;;805.08;746.15;;;;;;;21.36;33.41;97214.84;5080882;28;20161;-62
2021/05/05 08:45:26;;;;;;;814.72;756.17;;;;;;;21.53;32.72;97208.19;5080388;28;20117;-63
2021/05/05 08:47:55;;;;;;;822.13;764.58;;;;;;;21.77;32.58;97206.06;5080082;28;20293;-62
2021/05/05 08:50:24;;;;;;;822.17;763.80;;;;;;;21.86;32.91;97205.25;5081418;28;20269;-62
2021/05/05 08:52:49;;;;;;;834.00;773.63;;;;;;;21.63;32.58;97194.22;5081088;28;20050;-62
2021/05/05 08:55:17;;;;;;;828.75;768.75;;;;;;;21.59;33.79;97192.84;5079221;28;20370;-62
2021/05/05 08:57:43;;;;;;;824.47;763.42;;;;;;;21.76;33.50;97180.94;5079497;28;20035;-61
2021/05/05 09:00:12;;;;;;;830.75;769.92;;;;;;;21.94;32.48;97189.78;5080703;28;20032;-62
2021/05/05 09:02:38;;;;;;;836.65;775.47;;;;;;;22.08;33.61;97191.19;5080196;28;20109;-61
2021/05/05 09:05:10;;;;;;;826.03;764.92;;;;;;;22.14;32.48;97190.66;5082221;28;20094;-61
2021/05/05 09:07:37;;;;;;;844.58;783.08;;;;;;;22.00;33.51;97186.66;5082414;28;20400;-64
2021/05/05 09:10:19;;;;;;;842.22;781.45;;;;;;;22.14;32.33;97181.03;5080945;28;20060;-61
2021/05/05 09:12:46;;;;;;;846.63;785.17;;;;;;;22.24;31.96;97176.63;5080625;28;20071;-61
2021/05/05 09:15:15;;;;;;;853.92;792.60;;;;;;;22.56;32.29;97165.91;5079577;28;20032;-62
2021/05/05 09:17:44;;;;;;;865.70;805.85;;;;;;;22.44;31.71;97159.19;5086543;28;20020;-62
2021/05/05 09:20:10;;;;;;;864.90;806.85;;;;;;;22.55;32.67;97166.03;5086510;28;20052;-62
2021/05/05 09:22:38;;;;;;;867.58;809.08;;;;;;;22.73;31.92;97165.22;5095573;28;20063;-62
2021/05/05 09:25:07;;;;;;;865.17;810.05;;;;;;;22.67;32.04;97172.75;5088570;28;20021;-61
2021/05/05 09:27:34;;;;;;;872.20;815.35;;;;;;;22.71;31.62;97168.94;5095470;28;20057;-61
2021/05/05 09:30:02;;;;;;;887.67;830.90;;;;;;;22.47;32.28;97173.75;5083177;28;20118;-62
2021/05/05 09:32:28;;;;;;;881.28;822.55;;;;;;;22.49;33.37;97170.03;5092531;28;20055;-61
2021/05/05 09:35:07;;;;;;;872.33;815.90;;;;;;;22.16;32.83;97162.59;5085420;28;20063;-62
2021/05/05 09:37:32;;;;;;;874.05;815.17;;;;;;;22.01;33.97;97172.63;5084473;28;20032;-63
2021/05/05 09:40:16;;;;;;;873.55;815.03;;;;;;;22.28;33.85;97177.19;5082769;28;20332;-63
2021/05/05 09:42:41;;;;;;;865.47;806.22;;;;;;;22.36;33.69;97186.97;5085396;28;20054;-63
2021/05/05 09:45:09;;;;;;;860.03;801.22;;;;;;;22.37;33.65;97183.34;5085227;28;20078;-62
2021/05/05 09:47:55;;;;;;;855.33;795.33;;;;;;;22.28;33.36;97171.94;5084481;28;20046;-62
2021/05/05 09:50:33;;;;;;;861.17;801.80;;;;;;;22.03;33.49;97180.31;5086324;28;20073;-63
2021/05/05 09:53:17;;;;;;;856.17;797.65;;;;;;;21.82;34.47;97175.16;5086597;28;20568;-62
2021/05/05 09:56:03;;;;;;;851.88;793.03;;;;;;;21.88;34.59;97174.66;5085292;28;20035;-62
2021/05/05 09:58:42;;;;;;;848.33;790.40;;;;;;;22.37;34.00;97175.53;5085169;28;20044;-62
2021/05/05 10:01:09;;;;;;;853.95;795.88;;;;;;;22.36;33.76;97174.72;5084665;28;20020;-63
2021/05/05 10:03:38;;;;;;;867.60;811.22;;;;;;;22.27;33.23;97179.00;5083633;28;20043;-64
2021/05/05 10:06:23;;;;;;;865.67;808.95;;;;;;;22.08;33.86;97181.56;5086018;28;20052;-62
2021/05/05 10:08:52;;;;;;;849.92;793.63;;;;;;;21.70;34.12;97187.50;5086021;28;20056;-62
2021/05/05 10:11:20;;;;;;;848.30;790.47;;;;;;;21.36;34.28;97204.41;5086806;28;20066;-63
2021/05/05 10:13:50;;;;;;;843.60;785.03;;;;;;;21.35;34.24;97215.78;5087012;28;20052;-62
2021/05/05 10:16:16;;;;;;;843.22;783.45;;;;;;;20.91;35.13;97222.94;5084745;28;20058;-62
2021/05/05 10:18:44;;;;;;;836.63;775.92;;;;;;;20.56;36.10;97226.78;5083979;28;20020;-61
2021/05/05 10:21:13;;;;;;;829.08;770.97;;;;;;;20.20;38.19;97244.38;5082566;28;20036;-62
2021/05/05 10:23:40;;;;;;;823.83;767.10;;;;;;;19.77;39.29;97243.53;5085151;28;20078;-61
2021/05/05 10:26:06;;;;;;;795.05;740.03;;;;;;;19.14;40.91;97253.50;5084213;28;20020;-65
2021/05/05 10:28:32;;;;;;;782.60;727.85;;;;;;;18.83;43.29;97251.56;5082323;28;20047;-61
2021/05/05 10:30:58;;;;;;;770.92;719.30;;;;;;;18.53;45.10;97266.78;5085997;28;20059;-60
2021/05/05 10:33:26;;;;;;;753.25;702.63;;;;;;;18.34;46.02;97271.59;5085036;28;20424;-61
2021/05/05 10:35:52;;;;;;;730.58;681.80;;;;;;;18.06;47.30;97265.81;5083402;28;20029;-61
2021/05/05 10:38:34;;;;;;;715.58;668.70;;;;;;;18.06;47.80;97283.97;5085425;28;20029;-63
2021/05/05 10:41:12;;;;;;;688.90;643.13;;;;;;;17.71;49.77;97285.59;5083202;28;20266;-63
2021/05/05 10:43:46;;;;;;;655.45;611.50;;;;;;;17.26;48.54;97302.47;5084186;28;20120;-62
2021/05/05 10:46:35;;;;;;;644.75;599.75;;;;;;;16.99;49.62;97318.06;5086579;28;20032;-62
2021/05/05 10:49:13;;;;;;;624.58;579.88;;;;;;;16.61;52.46;97323.16;5078813;28;20293;-61
2021/05/05 10:51:57;;;;;;;621.95;578.80;;;;;;;16.26;53.48;97327.94;5080651;28;20343;-62
2021/05/05 10:54:53;;;;;;;597.20;555.28;;;;;;;16.20;52.64;97338.66;5085020;28;20054;-63
2021/05/05 10:57:22;;;;;;;575.50;534.60;;;;;;;15.93;53.23;97354.13;5084385;28;20020;-62
2021/05/05 10:59:56;;;;;;;560.10;518.67;;;;;;;15.65;57.45;97353.28;5081102;28;20051;-63
2021/05/05 11:02:53;;;;;;;559.20;518.38;;;;;;;15.48;57.36;97368.00;5085542;28;20028;-64
2021/05/05 11:05:28;;;;;;;532.65;491.70;;;;;;;15.31;58.86;97364.75;5081882;28;20301;-63
2021/05/05 11:08:02;;;;;;;522.28;483.48;;;;;;;15.25;59.67;97365.09;5092395;28;20115;-65
2021/05/05 11:10:34;;;;;;;513.50;477.35;;;;;;;15.27;58.95;97360.69;5084564;28;20056;-63